.
WxDataArchive / Data Records for 2012-07-03
2012-07-02 July 2012 2012-07-04

Data Records for Tuesday, 03 July 2012

Time	Temp	Chill	HIndex	Humid	Dewpt	 Wind 	HiWind	WindDir	Rain 	Barom 
-----	----	-----	------	-----	-----	------	------	-------	-----	----- 
00:00	79.6	79.6	82.0	67	67.7	0	0	---	0.00	29.917 
00:05	79.4	79.4	81.8	68	67.9	0	0	---	0.00	29.917 
00:10	79.2	79.2	81.5	68	67.7	0	0	---	0.00	29.917 
00:15	79.0	79.0	81.3	69	67.9	0	0	---	0.00	29.915 
00:20	78.8	78.8	81.1	69	67.7	0	0	---	0.00	29.915 
00:25	78.8	78.8	81.1	70	68.2	0	0	---	0.00	29.915 
00:30	78.6	78.6	80.8	70	68.0	0	0	---	0.00	29.915 
00:35	78.6	78.6	80.9	71	68.4	0	0	---	0.00	29.915 
00:40	78.6	78.6	80.9	71	68.4	0	0	---	0.00	29.915 
00:45	78.6	78.6	80.9	71	68.4	0	0	---	0.00	29.914 
00:50	78.6	78.6	80.9	71	68.4	0	0	---	0.00	29.914 
00:55	78.6	78.6	80.9	71	68.4	0	0	---	0.00	29.914 
01:00	78.6	78.6	80.9	71	68.4	0	0	---	0.00	29.915 
01:05	78.6	78.6	80.9	71	68.4	0	0	---	0.00	29.915 
01:10	78.6	78.6	80.9	71	68.4	0	0	---	0.00	29.915 
01:15	78.5	78.5	80.8	72	68.7	0	0	---	0.00	29.915 
01:20	78.5	78.5	80.8	72	68.7	0	0	---	0.00	29.915 
01:25	78.3	78.3	80.5	72	68.5	0	0	---	0.00	29.915 
01:30	78.1	78.1	80.3	73	68.7	0	0	---	0.00	29.916 
01:35	78.1	78.1	80.3	73	68.7	0	0	---	0.00	29.916 
01:40	77.9	77.9	80.0	74	68.9	0	0	---	0.00	29.916 
01:45	77.9	77.9	80.0	74	68.9	0	0	---	0.00	29.914 
01:50	77.7	77.7	79.7	74	68.7	0	0	---	0.00	29.914 
01:55	77.7	77.7	79.7	75	69.1	0	0	---	0.00	29.914 
02:00	77.6	77.6	79.6	75	69.0	0	0	---	0.00	29.914 
02:05	77.4	77.4	79.3	76	69.2	0	0	---	0.00	29.914 
02:10	77.2	77.2	79.0	76	69.0	0	0	---	0.00	29.914 
02:15	77.2	77.2	79.0	77	69.4	0	0	---	0.00	29.910 
02:20	77.0	77.0	78.7	77	69.2	0	0	---	0.00	29.910 
02:25	77.0	77.0	78.7	77	69.2	0	0	---	0.00	29.910 
02:30	76.8	76.8	78.4	77	69.0	0	0	---	0.00	29.911 
02:35	76.7	76.7	78.2	78	69.3	0	0	---	0.00	29.911 
02:40	76.7	76.7	78.1	79	69.7	0	0	---	0.00	29.911 
02:45	76.5	76.5	77.8	79	69.5	0	0	---	0.00	29.902 
02:50	76.5	76.5	77.8	79	69.5	0	0	---	0.00	29.902 
02:55	76.5	76.5	77.8	80	69.9	0	0	---	0.00	29.902 
03:00	76.3	76.3	77.5	80	69.7	0	0	---	0.00	29.900 
03:05	76.3	76.3	77.4	81	70.0	0	0	---	0.00	29.900 
03:10	76.3	76.3	77.4	81	70.0	0	0	---	0.00	29.900 
03:15	76.3	76.3	77.4	81	70.0	0	0	---	0.00	29.899 
03:20	76.3	76.3	77.4	81	70.0	0	0	---	0.00	29.899 
03:25	76.3	76.3	77.4	81	70.0	0	0	---	0.00	29.899 
03:30	76.3	76.3	77.4	81	70.0	0	0	---	0.00	29.889 
03:35	76.3	76.3	77.4	81	70.0	0	0	---	0.00	29.889 
03:40	76.3	76.3	77.4	81	70.0	0	0	---	0.00	29.889 
03:45	76.3	76.3	77.4	81	70.0	0	0	---	0.00	29.886 
03:50	76.3	76.3	77.3	82	70.4	0	0	---	0.00	29.886 
03:55	76.1	76.1	77.0	82	70.2	0	0	---	0.00	29.886 
04:00	76.1	76.1	77.0	82	70.2	0	0	---	0.00	29.880 
04:05	76.1	76.1	77.0	82	70.2	0	1	292	0.00	29.880 
04:10	76.5	76.5	77.7	81	70.2	0	1	292	0.00	29.880 
04:15	76.7	76.7	78.0	81	70.4	0	0	---	0.00	29.881 
04:20	76.7	76.7	78.1	80	70.0	0	0	---	0.00	29.881 
04:25	76.8	76.8	78.3	79	69.8	0	1	292	0.00	29.881 
04:30	77.0	77.0	78.6	78	69.6	0	1	292	0.00	29.879 
04:35	77.0	77.0	78.6	78	69.6	0	1	292	0.00	29.879 
04:40	77.2	77.2	79.0	77	69.4	0	1	292	0.00	29.879 
04:45	77.4	77.4	79.3	76	69.2	0	1	292	0.00	29.881 
04:50	77.4	77.4	79.3	76	69.2	0	0	---	0.00	29.881 
04:55	77.2	77.2	79.0	76	69.0	0	0	---	0.00	29.881 
05:00	77.0	77.0	78.7	76	68.8	0	0	---	0.00	29.883 
05:05	76.8	76.8	78.4	76	68.6	0	2	292	0.00	29.883 
05:10	76.8	76.8	78.4	76	68.6	1	3	292	0.00	29.883 
05:15	76.8	76.8	78.4	75	68.3	1	3	292	0.00	29.885 
05:20	77.2	77.2	79.0	75	68.6	1	3	292	0.00	29.885 
05:25	77.2	77.2	79.0	73	67.9	1	3	292	0.00	29.885 
05:30	77.2	77.2	79.0	72	67.5	1	3	292	0.00	29.896 
05:35	77.2	77.2	79.0	71	67.0	1	3	292	0.00	29.896 
05:40	77.2	77.2	79.0	70	66.6	1	4	292	0.00	29.896 
05:45	77.2	77.2	79.0	70	66.6	1	3	292	0.00	29.904 
05:50	77.2	77.2	79.0	70	66.6	1	4	292	0.00	29.904 
05:55	77.0	77.0	78.8	69	66.0	1	4	292	0.00	29.904 
06:00	77.0	77.0	78.8	69	66.0	1	3	270	0.00	29.901 
06:05	76.8	76.8	78.6	69	65.8	1	3	270	0.00	29.901 
06:10	76.8	76.8	78.6	67	65.0	1	5	270	0.00	29.901 
06:15	76.8	76.8	78.6	67	65.0	1	3	270	0.00	29.908 
06:20	76.8	76.8	78.6	67	65.0	1	3	270	0.00	29.908 
06:25	76.7	76.7	78.5	66	64.5	0	3	270	0.00	29.908 
06:30	76.5	76.5	78.3	66	64.3	1	3	270	0.00	29.909 
06:35	76.5	76.5	78.3	66	64.3	0	3	270	0.00	29.909 
06:40	76.5	76.5	78.3	66	64.3	0	2	270	0.00	29.909 
06:45	76.3	76.3	78.1	66	64.1	0	1	270	0.00	29.915 
06:50	76.1	76.1	77.9	66	63.9	0	2	270	0.00	29.915 
06:55	76.1	76.1	77.9	66	63.9	0	2	180	0.00	29.915 
07:00	76.0	76.0	77.8	66	63.8	0	2	180	0.00	29.914 
07:05	76.0	76.0	77.8	66	63.8	0	2	248	0.00	29.914 
07:10	75.8	75.8	77.7	66	63.6	0	1	248	0.00	29.914 
07:15	75.8	75.8	77.7	66	63.6	0	2	248	0.00	29.904 
07:20	75.8	75.8	77.7	66	63.6	1	3	248	0.00	29.904 
07:25	75.8	75.8	77.7	65	63.2	0	3	248	0.00	29.904 
07:30	75.8	75.8	77.7	66	63.6	0	1	248	0.00	29.905 
07:35	75.8	75.8	77.7	65	63.2	0	1	248	0.00	29.905 
07:40	75.8	75.8	77.7	65	63.2	0	2	248	0.00	29.905 
07:45	76.0	76.0	77.9	65	63.4	1	3	248	0.00	29.914 
07:50	76.1	76.1	78.0	64	63.0	1	3	248	0.00	29.914 
07:55	76.3	76.3	78.2	63	62.8	0	1	248	0.00	29.914 
08:00	76.5	76.5	78.3	63	62.9	0	2	248	0.00	29.915 
08:05	76.7	76.7	78.5	62	62.7	1	4	248	0.00	29.915 
08:10	76.8	76.8	78.6	62	62.8	1	3	248	0.00	29.915 
08:15	77.0	77.0	78.8	62	63.0	0	2	248	0.00	29.906 
08:20	77.0	77.0	78.8	61	62.5	1	4	248	0.00	29.906 
08:25	77.2	77.2	79.0	61	62.7	1	3	248	0.00	29.906 
08:30	77.4	77.4	79.1	60	62.4	1	2	248	0.00	29.916 
08:35	77.6	77.6	79.3	59	62.1	1	2	248	0.00	29.916 
08:40	77.9	77.9	79.5	59	62.4	2	4	248	0.00	29.916 
08:45	78.1	78.1	79.7	58	62.1	2	4	248	0.00	29.918 
08:50	78.5	78.5	80.0	58	62.5	1	4	315	0.00	29.918 
08:55	78.8	78.8	80.3	57	62.3	1	3	292	0.00	29.918 
09:00	79.4	79.4	80.8	56	62.3	1	3	292	0.00	29.918 
09:05	79.6	79.6	80.9	55	62.0	1	4	292	0.00	29.918 
09:10	79.8	79.8	81.0	54	61.7	2	4	292	0.00	29.918 
09:15	79.9	79.9	81.1	54	61.7	2	5	270	0.00	29.920 
09:20	80.3	80.3	81.5	54	62.1	2	4	292	0.00	29.920 
09:25	80.5	80.5	81.6	53	61.8	2	4	270	0.00	29.920 
09:30	80.9	80.9	81.9	52	61.6	2	4	270	0.00	29.921 
09:35	81.2	81.2	82.2	52	61.9	2	4	270	0.00	29.921 
09:40	81.6	81.6	82.5	51	61.7	2	5	292	0.00	29.921 
09:45	82.0	82.0	82.9	51	62.1	2	5	270	0.00	29.917 
09:50	82.4	82.4	83.2	50	61.9	1	4	270	0.00	29.917 
09:55	82.6	82.6	83.3	49	61.5	3	5	270	0.00	29.917 
10:00	83.0	83.0	83.7	49	61.8	2	4	270	0.00	29.912 
10:05	83.6	83.6	84.2	48	61.8	1	4	292	0.00	29.912 
10:10	84.0	84.0	84.5	47	61.6	2	4	292	0.00	29.912 
10:15	84.1	84.1	84.4	46	61.1	2	4	292	0.00	29.906 
10:20	84.5	84.5	84.9	46	61.4	2	4	292	0.00	29.906 
10:25	84.9	84.9	85.4	46	61.8	2	4	292	0.00	29.906 
10:30	85.3	85.3	85.9	46	62.1	1	3	292	0.00	29.904 
10:35	85.7	85.7	86.0	44	61.2	2	4	292	0.00	29.904 
10:40	86.1	86.1	86.5	44	61.6	2	4	292	0.00	29.904 
10:45	86.5	86.5	86.7	43	61.3	1	4	292	0.00	29.900 
10:50	87.0	87.0	87.1	42	61.1	2	4	292	0.00	29.900 
10:55	87.2	87.2	86.6	39	59.2	3	6	315	0.00	29.900 
11:00	87.4	87.4	87.1	40	60.1	3	6	270	0.00	29.901 
11:05	87.6	87.6	87.6	41	60.9	2	4	315	0.00	29.901 
11:10	88.0	88.0	88.2	41	61.3	2	4	315	0.00	29.901 
11:15	88.2	88.2	87.9	39	60.1	3	5	292	0.00	29.902 
11:20	88.4	88.4	87.6	37	58.8	4	7	270	0.00	29.902 
11:25	88.8	88.8	87.9	36	58.4	3	5	292	0.00	29.902 
11:30	89.0	89.0	87.9	35	57.7	3	5	270	0.00	29.896 
11:35	89.5	89.5	88.5	35	58.2	2	5	270	0.00	29.896 
11:40	89.5	89.5	88.5	35	58.2	2	5	315	0.00	29.896 
11:45	89.9	89.9	89.0	35	58.5	2	5	270	0.00	29.886 
11:50	90.5	90.5	89.5	34	58.3	2	4	270	0.00	29.886 
11:55	91.0	91.0	89.4	31	56.1	3	5	270	0.00	29.886 
12:00	91.2	91.2	89.9	32	57.2	3	7	315	0.00	29.886 
12:05	91.4	91.4	90.4	33	58.2	2	4	292	0.00	29.886 
12:10	91.8	91.8	91.3	34	59.4	2	3	315	0.00	29.886 
12:15	92.5	92.5	91.6	32	58.3	1	4	315	0.00	29.881 
12:20	93.2	93.2	91.9	30	57.1	2	4	315	0.00	29.881 
12:25	93.2	93.2	91.9	30	57.1	2	4	270	0.00	29.881 
12:30	93.4	93.4	92.2	30	57.3	2	5	270	0.00	29.874 
12:35	93.8	93.8	93.1	31	58.5	2	5	270	0.00	29.874 
12:40	93.6	93.6	92.8	31	58.4	3	6	270	0.00	29.874 
12:45	93.6	93.6	92.1	29	56.5	2	5	270	0.00	29.871 
12:50	93.8	93.8	93.1	31	58.5	3	5	292	0.00	29.871 
12:55	93.8	93.8	93.1	31	58.5	2	4	292	0.00	29.871 
13:00	94.3	94.3	94.1	32	59.9	1	4	270	0.00	29.869 
13:05	94.3	94.3	93.8	31	59.0	2	6	270	0.00	29.869 
13:10	94.7	94.7	94.7	32	60.2	1	4	270	0.00	29.869 
13:15	94.9	94.9	94.3	30	58.6	2	6	270	0.00	29.868 
13:20	94.7	94.7	93.3	28	56.5	3	5	270	0.00	29.868 
13:25	94.5	94.5	93.4	29	57.3	2	5	292	0.00	29.868 
13:30	94.7	94.7	95.1	33	61.1	2	5	292	0.00	29.861 
13:35	95.1	95.1	93.8	28	56.8	2	4	270	0.00	29.861 
13:40	94.9	94.9	93.6	28	56.6	3	5	270	0.00	29.861 
13:45	94.7	94.7	94.0	30	58.4	2	5	270	0.00	29.855 
13:50	94.5	94.5	93.7	30	58.2	2	5	270	0.00	29.855 
13:55	94.7	94.7	94.4	31	59.3	1	4	248	0.00	29.855 
14:00	94.9	94.9	94.3	30	58.6	2	6	270	0.00	29.852 
14:05	94.9	94.9	94.6	31	59.5	2	4	270	0.00	29.852 
14:10	95.4	95.4	95.8	32	60.8	2	4	270	0.00	29.852 
14:15	95.4	95.4	95.4	31	59.9	1	6	270	0.00	29.851 
14:20	95.6	95.6	95.3	30	59.2	2	4	270	0.00	29.851 
14:25	95.6	95.6	94.5	28	57.2	2	5	270	0.00	29.851 
14:30	95.9	95.9	95.3	29	58.5	2	4	248	0.00	29.845 
14:35	95.9	95.9	94.9	28	57.5	2	5	248	0.00	29.845 
14:40	95.4	95.4	93.9	27	56.1	3	7	270	0.00	29.845 
14:45	95.6	95.6	95.7	31	60.1	3	5	270	0.00	29.848 
14:50	95.4	95.4	94.6	29	58.0	3	5	270	0.00	29.848 
14:55	95.6	95.6	94.9	29	58.2	2	4	270	0.00	29.848 
15:00	96.1	96.1	95.2	28	57.7	2	6	292	0.00	29.845 
15:05	95.6	95.6	94.9	29	58.2	2	6	270	0.00	29.845 
15:10	95.6	95.6	95.7	31	60.1	2	4	315	0.00	29.845 
15:15	96.1	96.1	95.2	28	57.7	2	6	270	0.00	29.843 
15:20	96.3	96.3	95.5	28	57.8	2	6	270	0.00	29.843 
15:25	96.1	96.1	95.2	28	57.7	2	5	270	0.00	29.843 
15:30	95.9	95.9	95.3	29	58.5	3	5	270	0.00	29.845 
15:35	95.9	95.9	96.1	31	60.3	1	3	248	0.00	29.845 
15:40	96.3	96.3	96.3	30	59.8	2	7	248	0.00	29.845 
15:45	96.3	96.3	96.3	30	59.8	2	5	248	0.00	29.837 
15:50	96.6	96.6	96.4	29	59.1	2	4	248	0.00	29.837 
15:55	96.6	96.6	95.9	28	58.1	2	5	270	0.00	29.837 
16:00	96.8	96.8	96.2	28	58.3	2	5	248	0.00	29.837 
16:05	96.6	96.6	95.9	28	58.1	3	5	270	0.00	29.837 
16:10	96.1	96.1	95.2	28	57.7	4	6	270	0.00	29.837 
16:15	96.1	96.1	95.6	29	58.6	3	5	248	0.00	29.836 
16:20	96.1	96.1	95.2	28	57.7	3	6	248	0.00	29.836 
16:25	96.1	96.1	95.2	28	57.7	3	9	248	0.00	29.836 
16:30	95.9	95.9	95.7	30	59.4	2	5	270	0.00	29.831 
16:35	95.9	95.9	95.7	30	59.4	2	4	270	0.00	29.831 
16:40	96.1	96.1	96.5	31	60.5	2	4	292	0.00	29.831 
16:45	96.3	96.3	96.8	31	60.7	2	5	270	0.00	29.826 
16:50	96.3	96.3	97.2	32	61.6	2	4	248	0.00	29.826 
16:55	96.3	96.3	96.8	31	60.7	2	4	248	0.00	29.826 
17:00	96.3	96.3	95.1	27	56.8	2	5	270	0.00	29.821 
17:05	96.3	96.3	95.5	28	57.8	2	4	270	0.00	29.821 
17:10	96.1	96.1	95.2	28	57.7	3	8	270	0.00	29.821 
17:15	96.1	96.1	95.2	28	57.7	3	6	270	0.00	29.818 
17:20	95.6	95.6	94.2	27	56.2	3	7	270	0.00	29.818 
17:25	95.4	95.4	94.2	28	57.1	3	6	270	0.00	29.818 
17:30	95.4	95.4	94.6	29	58.0	2	6	248	0.00	29.812 
17:35	95.4	95.4	94.6	29	58.0	2	6	270	0.00	29.812 
17:40	95.4	95.4	95.0	30	59.0	4	7	270	0.00	29.812 
17:45	95.1	95.1	95.3	32	60.5	3	6	270	0.00	29.810 
17:50	95.1	95.1	95.8	33	61.4	3	6	270	0.00	29.810 
17:55	94.9	94.9	95.9	34	62.1	3	5	270	0.00	29.810 
18:00	94.7	94.7	96.0	35	62.7	3	6	270	0.00	29.806 
18:05	94.7	94.7	96.5	36	63.5	2	6	292	0.00	29.806 
18:10	94.5	94.5	95.3	34	61.7	2	5	270	0.00	29.806 
18:15	94.5	94.5	94.8	33	60.9	3	5	270	0.00	29.806 
18:20	94.3	94.3	94.9	34	61.6	2	4	270	0.00	29.806 
18:25	94.3	94.3	95.4	35	62.4	3	5	270	0.00	29.806 
18:30	94.0	94.0	94.9	35	62.1	2	5	270	0.00	29.806 
18:35	93.8	93.8	95.0	36	62.7	2	5	270	0.00	29.806 
18:40	93.6	93.6	94.7	36	62.6	2	4	270	0.00	29.806 
18:45	93.6	93.6	94.3	35	61.8	2	4	270	0.00	29.807 
18:50	93.6	93.6	94.7	36	62.6	1	4	248	0.00	29.807 
18:55	93.4	93.4	94.4	36	62.4	2	4	248	0.00	29.807 
19:00	93.2	93.2	94.1	36	62.2	2	6	248	0.00	29.807 
19:05	92.9	92.9	94.0	37	62.7	3	5	270	0.00	29.807 
19:10	92.9	92.9	94.4	38	63.5	1	3	270	0.00	29.807 
19:15	92.9	92.9	94.4	38	63.5	2	4	315	0.00	29.805 
19:20	92.7	92.7	94.5	39	64.1	2	4	315	0.00	29.805 
19:25	92.7	92.7	94.1	38	63.3	2	4	315	0.00	29.805 
19:30	92.5	92.5	94.2	39	63.9	2	4	270	0.00	29.804 
19:35	92.3	92.3	93.8	39	63.7	2	5	248	0.00	29.804 
19:40	92.1	92.1	93.5	39	63.5	1	4	270	0.00	29.804 
19:45	91.8	91.8	93.4	40	64.0	2	4	270	0.00	29.807 
19:50	91.6	91.6	93.1	40	63.8	1	4	270	0.00	29.807 
19:55	91.6	91.6	93.5	41	64.5	1	2	270	0.00	29.807 
20:00	91.4	91.4	93.6	42	65.0	1	4	270	0.00	29.806 
20:05	91.2	91.2	92.9	41	64.2	1	3	270	0.00	29.806 
20:10	91.2	91.2	93.3	42	64.9	1	4	270	0.00	29.806 
20:15	91.0	91.0	92.6	41	64.0	2	5	270	0.00	29.808 
20:20	90.7	90.7	92.5	42	64.4	1	3	270	0.00	29.808 
20:25	90.5	90.5	92.2	42	64.2	1	3	270	0.00	29.808 
20:30	90.3	90.3	92.2	43	64.7	1	2	270	0.00	29.808 
20:35	90.1	90.1	91.9	43	64.5	1	4	270	0.00	29.808 
20:40	90.1	90.1	91.9	43	64.5	2	4	292	0.00	29.808 
20:45	89.9	89.9	91.6	43	64.4	1	2	292	0.00	29.814 
20:50	89.7	89.7	91.3	43	64.2	0	2	292	0.00	29.814 
20:55	89.5	89.5	91.0	43	64.0	1	3	292	0.00	29.814 
21:00	89.3	89.3	91.0	44	64.5	1	2	292	0.00	29.816 
21:05	89.0	89.0	90.5	44	64.2	0	1	292	0.00	29.816 
21:10	88.8	88.8	90.6	45	64.7	1	3	292	0.00	29.816 
21:15	88.6	88.6	90.3	45	64.5	0	2	292	0.00	29.816 
21:20	88.2	88.2	90.0	46	64.8	1	3	292	0.00	29.816 
21:25	88.2	88.2	90.0	46	64.8	0	2	292	0.00	29.816 
21:30	88.0	88.0	89.7	46	64.6	0	2	292	0.00	29.819 
21:35	87.8	87.8	89.7	47	65.0	0	2	292	0.00	29.819 
21:40	87.6	87.6	89.4	47	64.8	0	1	292	0.00	29.819 
21:45	87.4	87.4	89.4	48	65.3	0	1	292	0.00	29.821 
21:50	87.2	87.2	89.1	48	65.1	0	1	292	0.00	29.821 
21:55	87.2	87.2	89.4	49	65.7	0	1	292	0.00	29.821 
22:00	87.0	87.0	89.1	49	65.5	0	1	292	0.00	29.825 
22:05	86.7	86.7	88.9	50	65.8	0	1	292	0.00	29.825 
22:10	86.3	86.3	88.3	50	65.4	0	1	292	0.00	29.825 
22:15	86.1	86.1	88.3	51	65.8	0	0	---	0.00	29.827 
22:20	85.7	85.7	88.0	52	66.0	0	0	---	0.00	29.827 
22:25	85.5	85.5	87.7	52	65.8	0	1	292	0.00	29.827 
22:30	85.5	85.5	88.0	53	66.4	0	0	---	0.00	29.833 
22:35	85.3	85.3	88.0	54	66.7	0	0	---	0.00	29.833 
22:40	85.1	85.1	87.7	54	66.6	0	0	---	0.00	29.833 
22:45	84.7	84.7	87.3	55	66.7	0	0	---	0.00	29.835 
22:50	84.5	84.5	87.3	56	67.0	0	0	---	0.00	29.835 
22:55	84.3	84.3	87.0	56	66.9	0	1	292	0.00	29.835 
23:00	84.3	84.3	87.0	56	66.9	0	1	292	0.00	29.836 
23:05	84.1	84.1	86.7	56	66.7	0	0	---	0.00	29.836 
23:10	84.0	84.0	86.7	57	67.1	0	0	---	0.00	29.836 
23:15	83.8	83.8	86.4	57	66.9	0	0	---	0.00	29.833 
23:20	83.4	83.4	86.1	58	67.0	0	0	---	0.00	29.833 
23:25	83.2	83.2	86.0	59	67.4	0	0	---	0.00	29.833 
23:30	82.8	82.8	85.4	59	67.0	0	0	---	0.00	29.834 
23:35	82.8	82.8	85.6	60	67.5	0	0	---	0.00	29.834 
23:40	82.6	82.6	85.3	60	67.3	0	0	---	0.00	29.834 
23:45	82.4	82.4	85.2	61	67.6	0	0	---	0.00	29.834 
23:50	82.2	82.2	84.9	61	67.4	0	0	---	0.00	29.834 
23:55	82.0	82.0	84.8	62	67.7	0	0	---	0.00	29.834 

CoCoRaHS
IN-AL-39
A2 Web Hosting
Creative Commons License
GoDaddy
search engine by freefind advanced

loaded 2018-11-14 04:35:33 • last modified 2010-11-18 10:43:29
Privacy PolicyDisclaimer
• wx.awcolley.com is powered by PmWiki v.2002016 •
• all content (unless otherwise noted) © 2018 A W Colley